Time;durP1;ratioP1;P1;durP2;ratioP2;P2;SDS_P1;SDS_P2;PMS_P1;PMS_P2;Temp;Humidity;BMP_temperature;BMP_pressure;BME280_temperature;BME280_humidity;BME280_pressure;Samples;Min_cycle;Max_cycle;Signal;HPM_P1;HPM_P2
2022/01/01 00:00:11;;;;;;;;;;;;;;;;;;1010471;29;934;-33
2022/01/01 00:00:44;;;;;;;;;;;;;;;;;;1008004;29;765;-33
2022/01/01 00:01:15;;;;;;;;;;;;;;;;;;1007302;29;846;-33
2022/01/01 00:01:45;;;;;;;;;;;;;;;;;;1007893;29;911;-34
2022/01/01 00:02:19;;;;;;;;;;;;;;;;;;1007724;29;939;-33
2022/01/01 00:02:50;;;;;;;;;;;;;;;;;;1007954;29;959;-33
2022/01/01 00:03:20;;;;;;;;;;;;;;;;;;1007476;29;833;-33
2022/01/01 00:03:51;;;;;;;;;;;;;;;;;;1007741;29;821;-34
2022/01/01 00:04:21;;;;;;;;;;;;;;;;;;1007980;29;875;-34
2022/01/01 00:04:52;;;;;;;;;;;;;;;;;;1010790;29;987;-33
2022/01/01 00:05:22;;;;;;;;;;;;;;;;;;1011821;29;916;-34
2022/01/01 00:05:53;;;;;;;;;;;;;;;;;;1011356;29;970;-34
2022/01/01 00:06:24;;;;;;;;;;;;;;;;;;1011617;29;943;-33
2022/01/01 00:06:55;;;;;;;;;;;;;;;;;;1011561;29;1236;-33
2022/01/01 00:07:25;;;;;;;;;;;;;;;;;;1011691;29;859;-34
2022/01/01 00:07:57;;;;;;;;;;;;;;;;;;1011728;29;947;-34
2022/01/01 00:08:27;;;;;;;;;;;;;;;;;;1011579;29;912;-34
2022/01/01 00:08:57;;;;;;;;;;;;;;;;;;1011363;29;856;-34
2022/01/01 00:09:28;;;;;;;;;;;;;;;;;;1011733;29;844;-34
2022/01/01 00:09:58;;;;;;;;;;;;;;;;;;1011789;29;824;-34
2022/01/01 00:10:30;;;;;;;;;;;;;;;;;;1011541;29;860;-33
2022/01/01 00:11:00;;;;;;;;;;;;;;;;;;1011160;29;1992;-33
2022/01/01 00:11:30;;;;;;;;;;;;;;;;;;1011450;29;1015;-32
2022/01/01 00:12:01;;;;;;;;;;;;;;;;;;1011849;29;938;-32
2022/01/01 00:12:31;;;;;;;;;;;;;;;;;;1011598;29;935;-32
2022/01/01 00:13:03;;;;;;;;;;;;;;;;;;1011745;29;896;-32
2022/01/01 00:13:33;;;;;;;;;;;;;;;;;;1011263;29;994;-32
2022/01/01 00:14:03;;;;;;;;;;;;;;;;;;1011552;29;1180;-34
2022/01/01 00:14:34;;;;;;;;;;;;;;;;;;1011531;29;800;-32
2022/01/01 00:15:04;;;;;;;;;;;;;;;;;;1011857;29;799;-32
2022/01/01 00:15:34;;;;;;;;;;;;;;;;;;1011369;29;958;-33
2022/01/01 00:16:09;;;;;;;;;;;;;;;;;;1011529;29;1026;-32
2022/01/01 00:16:39;;;;;;;;;;;;;;;;;;1011551;29;776;-33
2022/01/01 00:17:10;;;;;;;;;;;;;;;;;;1011717;29;1018;-32
2022/01/01 00:17:40;;;;;;;;;;;;;;;;;;1011268;29;1009;-33
2022/01/01 00:18:11;;;;;;;;;;;;;;;;;;1011606;29;935;-33
2022/01/01 00:18:42;;;;;;;;;;;;;;;;;;1011276;29;957;-33
2022/01/01 00:19:12;;;;;;;;;;;;;;;;;;1011278;29;879;-33
2022/01/01 00:19:43;;;;;;;;;;;;;;;;;;1011180;29;1112;-33
2022/01/01 00:20:13;;;;;;;;;;;;;;;;;;1011259;29;915;-34
2022/01/01 00:20:44;;;;;;;;;;;;;;;;;;1007314;29;1009;-34
2022/01/01 00:21:14;;;;;;;;;;;;;;;;;;1007663;29;939;-33
2022/01/01 00:21:45;;;;;;;;;;;;;;;;;;1011630;29;774;-33
2022/01/01 00:22:15;;;;;;;;;;;;;;;;;;1011660;29;860;-33
2022/01/01 00:22:45;;;;;;;;;;;;;;;;;;1011680;29;943;-32
2022/01/01 00:23:16;;;;;;;;;;;;;;;;;;1011498;29;946;-33
2022/01/01 00:23:46;;;;;;;;;;;;;;;;;;1011468;29;892;-33
2022/01/01 00:24:16;;;;;;;;;;;;;;;;;;1011660;29;1709;-33
2022/01/01 00:24:47;;;;;;;;;;;;;;;;;;1011603;29;919;-33
2022/01/01 00:25:17;;;;;;;;;;;;;;;;;;1011668;29;958;-33
2022/01/01 00:25:47;;;;;;;;;;;;;;;;;;1011498;29;887;-33
2022/01/01 00:26:18;;;;;;;;;;;;;;;;;;1011677;29;820;-33
2022/01/01 00:26:48;;;;;;;;;;;;;;;;;;1011749;29;795;-33
2022/01/01 00:27:19;;;;;;;;;;;;;;;;;;1011550;29;796;-34
2022/01/01 00:27:49;;;;;;;;;;;;;;;;;;1011586;29;934;-35
2022/01/01 00:28:19;;;;;;;;;;;;;;;;;;1011687;29;878;-34
2022/01/01 00:28:50;;;;;;;;;;;;;;;;;;1011710;29;931;-33
2022/01/01 00:29:20;;;;;;;;;;;;;;;;;;1011714;29;1002;-34
2022/01/01 00:29:50;;;;;;;;;;;;;;;;;;1011467;29;815;-36
2022/01/01 00:30:21;;;;;;;;;;;;;;;;;;1011792;29;927;-35
2022/01/01 00:30:52;;;;;;;;;;;;;;;;;;1011279;29;1899;-34
2022/01/01 00:31:22;;;;;;;;;;;;;;;;;;1011593;29;908;-33
2022/01/01 00:31:52;;;;;;;;;;;;;;;;;;1011549;29;804;-35
2022/01/01 00:32:22;;;;;;;;;;;;;;;;;;1011792;29;851;-34
2022/01/01 00:32:53;;;;;;;;;;;;;;;;;;1011533;29;828;-32
2022/01/01 00:33:25;;;;;;;;;;;;;;;;;;1011928;29;891;-33
2022/01/01 00:33:55;;;;;;;;;;;;;;;;;;1011549;29;804;-34
2022/01/01 00:34:25;;;;;;;;;;;;;;;;;;1011794;29;962;-34
2022/01/01 00:34:56;;;;;;;;;;;;;;;;;;1011509;29;868;-34
2022/01/01 00:35:26;;;;;;;;;;;;;;;;;;1011628;29;883;-35
2022/01/01 00:35:57;;;;;;;;;;;;;;;;;;1011470;29;946;-36
2022/01/01 00:36:27;;;;;;;;;;;;;;;;;;1011741;29;884;-36
2022/01/01 00:36:58;;;;;;;;;;;;;;;;;;1011656;29;895;-35
2022/01/01 00:37:28;;;;;;;;;;;;;;;;;;1011739;29;1312;-36
2022/01/01 00:37:59;;;;;;;;;;;;;;;;;;1011449;29;892;-36
2022/01/01 00:38:29;;;;;;;;;;;;;;;;;;1011528;29;880;-36
2022/01/01 00:38:59;;;;;;;;;;;;;;;;;;1011595;29;883;-36
2022/01/01 00:39:30;;;;;;;;;;;;;;;;;;1007826;29;889;-35
2022/01/01 00:40:00;;;;;;;;;;;;;;;;;;1007722;29;920;-36
2022/01/01 00:40:31;;;;;;;;;;;;;;;;;;1007719;29;873;-35
2022/01/01 00:41:01;;;;;;;;;;;;;;;;;;1007885;29;869;-33
2022/01/01 00:41:32;;;;;;;;;;;;;;;;;;1007783;29;947;-33
2022/01/01 00:42:02;;;;;;;;;;;;;;;;;;1007737;29;776;-35
2022/01/01 00:42:33;;;;;;;;;;;;;;;;;;1007852;29;967;-34
2022/01/01 00:43:03;;;;;;;;;;;;;;;;;;1007780;29;888;-34
2022/01/01 00:43:34;;;;;;;;;;;;;;;;;;1007718;29;987;-34
2022/01/01 00:44:04;;;;;;;;;;;;;;;;;;1007746;29;1282;-34
2022/01/01 00:44:35;;;;;;;;;;;;;;;;;;1007663;29;840;-33
2022/01/01 00:45:05;;;;;;;;;;;;;;;;;;1007640;29;1071;-35
2022/01/01 00:45:36;;;;;;;;;;;;;;;;;;1007721;29;1018;-35
2022/01/01 00:46:06;;;;;;;;;;;;;;;;;;1007630;29;908;-35
2022/01/01 00:46:36;;;;;;;;;;;;;;;;;;1007883;29;963;-36
2022/01/01 00:47:07;;;;;;;;;;;;;;;;;;1007695;29;987;-35
2022/01/01 00:47:37;;;;;;;;;;;;;;;;;;1007757;29;976;-35
2022/01/01 00:48:07;;;;;;;;;;;;;;;;;;1007439;29;966;-35
2022/01/01 00:48:38;;;;;;;;;;;;;;;;;;1007412;29;781;-35
2022/01/01 00:49:08;;;;;;;;;;;;;;;;;;1007454;29;896;-35
2022/01/01 00:49:39;;;;;;;;;;;;;;;;;;1007406;29;849;-35
2022/01/01 00:50:09;;;;;;;;;;;;;;;;;;1007771;29;932;-35
2022/01/01 00:50:39;;;;;;;;;;;;;;;;;;1007754;29;876;-36
2022/01/01 00:51:09;;;;;;;;;;;;;;;;;;1007599;29;1977;-35
2022/01/01 00:51:40;;;;;;;;;;;;;;;;;;1007846;29;932;-35
2022/01/01 00:52:10;;;;;;;;;;;;;;;;;;1007602;29;947;-35
2022/01/01 00:52:42;;;;;;;;;;;;;;;;;;1010858;29;1122;-35
2022/01/01 00:53:13;;;;;;;;;;;;;;;;;;1011571;29;1144;-35
2022/01/01 00:53:43;;;;;;;;;;;;;;;;;;1011545;29;1105;-35
2022/01/01 00:54:13;;;;;;;;;;;;;;;;;;1011327;29;1232;-35
2022/01/01 00:54:44;;;;;;;;;;;;;;;;;;1011391;29;1102;-35
2022/01/01 00:55:14;;;;;;;;;;;;;;;;;;1011532;29;1030;-35
2022/01/01 00:55:44;;;;;;;;;;;;;;;;;;1011433;29;1125;-35
2022/01/01 00:56:15;;;;;;;;;;;;;;;;;;1011541;29;1404;-35
2022/01/01 00:56:45;;;;;;;;;;;;;;;;;;1011499;29;1145;-35
2022/01/01 00:57:15;;;;;;;;;;;;;;;;;;1011617;29;1336;-34
2022/01/01 00:57:47;;;;;;;;;;;;;;;;;;1011519;29;1090;-34
2022/01/01 00:58:17;;;;;;;;;;;;;;;;;;1011525;29;1168;-34
2022/01/01 00:58:47;;;;;;;;;;;;;;;;;;1011444;29;1172;-35
2022/01/01 00:59:18;;;;;;;;;;;;;;;;;;1011620;29;1267;-34
2022/01/01 00:59:49;;;;;;;;;;;;;;;;;;1011564;29;1150;-34
2022/01/01 01:00:19;;;;;;;;;;;;;;;;;;1011523;29;1151;-35
2022/01/01 01:00:50;;;;;;;;;;;;;;;;;;1011496;29;1184;-35
2022/01/01 01:01:20;;;;;;;;;;;;;;;;;;1011628;29;1113;-34
2022/01/01 01:01:50;;;;;;;;;;;;;;;;;;1011493;29;1094;-35
2022/01/01 01:02:21;;;;;;;;;;;;;;;;;;1011569;29;1200;-34
2022/01/01 01:02:51;;;;;;;;;;;;;;;;;;1011359;29;1042;-34
2022/01/01 01:03:21;;;;;;;;;;;;;;;;;;1011580;29;1030;-35
2022/01/01 01:03:51;;;;;;;;;;;;;;;;;;1011628;29;1173;-35
2022/01/01 01:04:22;;;;;;;;;;;;;;;;;;1011493;29;1122;-35
2022/01/01 01:04:52;;;;;;;;;;;;;;;;;;1011497;29;1204;-34
2022/01/01 01:05:22;;;;;;;;;;;;;;;;;;1011464;29;1208;-35
2022/01/01 01:05:53;;;;;;;;;;;;;;;;;;1011401;29;1117;-35
2022/01/01 01:06:23;;;;;;;;;;;;;;;;;;1011619;29;1357;-35
2022/01/01 01:06:54;;;;;;;;;;;;;;;;;;1011245;29;1390;-35
2022/01/01 01:07:24;;;;;;;;;;;;;;;;;;1011615;29;1196;-34
2022/01/01 01:07:55;;;;;;;;;;;;;;;;;;1011479;29;1236;-34
2022/01/01 01:08:25;;;;;;;;;;;;;;;;;;1011566;29;1224;-33
2022/01/01 01:08:59;;;;;;;;;;;;;;;;;;1011576;29;1137;-34
2022/01/01 01:09:29;;;;;;;;;;;;;;;;;;1011488;29;1118;-34
2022/01/01 01:10:00;;;;;;;;;;;;;;;;;;1011702;29;1129;-34
2022/01/01 01:10:30;;;;;;;;;;;;;;;;;;1011576;29;1129;-34
2022/01/01 01:11:03;;;;;;;;;;;;;;;;;;1011387;29;1911;-34
2022/01/01 01:11:41;;;;;;;;;;;;;;;;;;1011523;29;1113;-34
2022/01/01 01:12:12;;;;;;;;;;;;;;;;;;1009037;29;1099;-34
2022/01/01 01:12:47;;;;;;;;;;;;;;;;;;1011729;29;1158;-34
2022/01/01 01:13:19;;;;;;;;;;;;;;;;;;1011314;29;1208;-34
2022/01/01 01:13:57;;;;;;;;;;;;;;;;;;1011560;29;1161;-34
2022/01/01 01:14:28;;;;;;;;;;;;;;;;;;1011553;29;1666;-34
2022/01/01 01:14:58;;;;;;;;;;;;;;;;;;1011510;29;1122;-34
2022/01/01 01:15:30;;;;;;;;;;;;;;;;;;1011120;29;1212;-34
2022/01/01 01:16:00;;;;;;;;;;;;;;;;;;1011164;29;1268;-34
2022/01/01 01:16:31;;;;;;;;;;;;;;;;;;1008702;29;1142;-34
2022/01/01 01:17:01;;;;;;;;;;;;;;;;;;1011230;29;1220;-34
2022/01/01 01:17:32;;;;;;;;;;;;;;;;;;1011451;29;1236;-34
2022/01/01 01:18:04;;;;;;;;;;;;;;;;;;1011553;29;1161;-34
2022/01/01 01:18:34;;;;;;;;;;;;;;;;;;1011466;29;1117;-34
2022/01/01 01:19:05;;;;;;;;;;;;;;;;;;1010953;29;1133;-34
2022/01/01 01:19:35;;;;;;;;;;;;;;;;;;1010853;29;1275;-34
2022/01/01 01:20:06;;;;;;;;;;;;;;;;;;1011206;29;1180;-34
2022/01/01 01:20:36;;;;;;;;;;;;;;;;;;1007384;29;1546;-34
2022/01/01 01:21:06;;;;;;;;;;;;;;;;;;1007346;29;1213;-34
2022/01/01 01:21:37;;;;;;;;;;;;;;;;;;1007206;29;1121;-34
2022/01/01 01:22:07;;;;;;;;;;;;;;;;;;1007340;29;1154;-34
2022/01/01 01:22:38;;;;;;;;;;;;;;;;;;1011518;29;1141;-34
2022/01/01 01:23:08;;;;;;;;;;;;;;;;;;1011517;29;1267;-34
2022/01/01 01:23:38;;;;;;;;;;;;;;;;;;1011499;29;1149;-34
2022/01/01 01:24:09;;;;;;;;;;;;;;;;;;1011463;29;1149;-34
2022/01/01 01:24:40;;;;;;;;;;;;;;;;;;1011658;29;1173;-35
2022/01/01 01:25:10;;;;;;;;;;;;;;;;;;1011414;29;1213;-34
2022/01/01 01:25:41;;;;;;;;;;;;;;;;;;1011628;29;1172;-34
2022/01/01 01:26:12;;;;;;;;;;;;;;;;;;1011621;29;1622;-34
2022/01/01 01:26:49;;;;;;;;;;;;;;;;;;1011264;29;1030;-34
2022/01/01 01:27:20;;;;;;;;;;;;;;;;;;1012012;29;1185;-34
2022/01/01 01:27:50;;;;;;;;;;;;;;;;;;1011796;29;1169;-34
2022/01/01 01:28:21;;;;;;;;;;;;;;;;;;1012023;29;1109;-34
2022/01/01 01:28:52;;;;;;;;;;;;;;;;;;1009756;29;1105;-34
2022/01/01 01:29:24;;;;;;;;;;;;;;;;;;1012161;29;1145;-33
2022/01/01 01:29:56;;;;;;;;;;;;;;;;;;1012333;29;1212;-35
2022/01/01 01:30:26;;;;;;;;;;;;;;;;;;1012078;29;1085;-34
2022/01/01 01:30:56;;;;;;;;;;;;;;;;;;1012154;29;1915;-34
2022/01/01 01:31:28;;;;;;;;;;;;;;;;;;1012273;29;1161;-34
2022/01/01 01:31:59;;;;;;;;;;;;;;;;;;1012096;29;1094;-34
2022/01/01 01:32:29;;;;;;;;;;;;;;;;;;1012256;29;1192;-34
2022/01/01 01:32:59;;;;;;;;;;;;;;;;;;1012225;29;1109;-34
2022/01/01 01:33:30;;;;;;;;;;;;;;;;;;1012150;29;1165;-34
2022/01/01 01:34:02;;;;;;;;;;;;;;;;;;1012225;29;1161;-34
2022/01/01 01:34:32;;;;;;;;;;;;;;;;;;1012115;29;1120;-34
2022/01/01 01:35:03;;;;;;;;;;;;;;;;;;1012242;29;1093;-34
2022/01/01 01:35:33;;;;;;;;;;;;;;;;;;1012115;29;1177;-34
2022/01/01 01:36:04;;;;;;;;;;;;;;;;;;1012147;29;1113;-34
2022/01/01 01:36:34;;;;;;;;;;;;;;;;;;1006692;29;1153;-34
2022/01/01 01:37:05;;;;;;;;;;;;;;;;;;1006711;29;1197;-34
2022/01/01 01:37:35;;;;;;;;;;;;;;;;;;1012278;29;1189;-33
2022/01/01 01:38:05;;;;;;;;;;;;;;;;;;1012210;29;1216;-34
2022/01/01 01:38:36;;;;;;;;;;;;;;;;;;1012151;29;1117;-35
2022/01/01 01:39:07;;;;;;;;;;;;;;;;;;1012192;29;1137;-34
2022/01/01 01:39:37;;;;;;;;;;;;;;;;;;1012204;29;1240;-34
2022/01/01 01:40:08;;;;;;;;;;;;;;;;;;1012264;29;812;-34
2022/01/01 01:40:38;;;;;;;;;;;;;;;;;;1012281;29;915;-35
2022/01/01 01:41:09;;;;;;;;;;;;;;;;;;1012178;29;1073;-34
2022/01/01 01:41:42;;;;;;;;;;;;;;;;;;1012414;29;808;-34
2022/01/01 01:42:14;;;;;;;;;;;;;;;;;;1012188;29;820;-34
2022/01/01 01:42:45;;;;;;;;;;;;;;;;;;1012337;29;943;-35
2022/01/01 01:43:15;;;;;;;;;;;;;;;;;;1012123;29;935;-34
2022/01/01 01:43:46;;;;;;;;;;;;;;;;;;1012189;29;1198;-34
2022/01/01 01:44:24;;;;;;;;;;;;;;;;;;1012253;29;904;-34
2022/01/01 01:44:55;;;;;;;;;;;;;;;;;;1012127;29;1033;-34
2022/01/01 01:45:28;;;;;;;;;;;;;;;;;;1012261;29;1642;-34
2022/01/01 01:46:04;;;;;;;;;;;;;;;;;;1012183;29;939;-34
2022/01/01 01:46:34;;;;;;;;;;;;;;;;;;1012197;29;935;-34
2022/01/01 01:47:13;;;;;;;;;;;;;;;;;;1012175;29;828;-34
2022/01/01 01:47:44;;;;;;;;;;;;;;;;;;1012232;29;904;-34
2022/01/01 01:48:14;;;;;;;;;;;;;;;;;;1012207;29;923;-34
2022/01/01 01:48:46;;;;;;;;;;;;;;;;;;1012397;29;887;-34
2022/01/01 01:49:16;;;;;;;;;;;;;;;;;;1011976;29;836;-34
2022/01/01 01:49:46;;;;;;;;;;;;;;;;;;1012350;29;804;-34
2022/01/01 01:50:17;;;;;;;;;;;;;;;;;;1012138;29;875;-34
2022/01/01 01:50:48;;;;;;;;;;;;;;;;;;1012299;29;1907;-34
2022/01/01 01:51:18;;;;;;;;;;;;;;;;;;1012026;29;888;-34
2022/01/01 01:51:49;;;;;;;;;;;;;;;;;;1012301;29;859;-34
2022/01/01 01:52:20;;;;;;;;;;;;;;;;;;1012287;29;1009;-34
2022/01/01 01:52:52;;;;;;;;;;;;;;;;;;1012195;29;1019;-34
2022/01/01 01:53:22;;;;;;;;;;;;;;;;;;1012135;29;796;-34
2022/01/01 01:53:52;;;;;;;;;;;;;;;;;;1012262;29;903;-34
2022/01/01 01:54:23;;;;;;;;;;;;;;;;;;1012127;29;817;-34
2022/01/01 01:54:53;;;;;;;;;;;;;;;;;;1012253;29;943;-33
2022/01/01 01:55:24;;;;;;;;;;;;;;;;;;1012141;29;975;-34
2022/01/01 01:55:55;;;;;;;;;;;;;;;;;;1012110;29;975;-34
2022/01/01 01:56:25;;;;;;;;;;;;;;;;;;1012311;29;831;-34
2022/01/01 01:56:55;;;;;;;;;;;;;;;;;;1012126;29;808;-33
2022/01/01 01:57:26;;;;;;;;;;;;;;;;;;1012186;29;927;-34
2022/01/01 01:57:57;;;;;;;;;;;;;;;;;;1012217;29;943;-34
2022/01/01 01:58:30;;;;;;;;;;;;;;;;;;1012152;29;1022;-34
2022/01/01 01:59:00;;;;;;;;;;;;;;;;;;1012380;29;943;-34
2022/01/01 01:59:30;;;;;;;;;;;;;;;;;;1012060;29;961;-34
2022/01/01 02:00:02;;;;;;;;;;;;;;;;;;1012385;29;876;-34
2022/01/01 02:01:36;;;;;;;;;;;;;;;;;;1012139;29;864;-34
2022/01/01 02:02:07;;;;;;;;;;;;;;;;;;1012143;29;970;-34
2022/01/01 02:02:37;;;;;;;;;;;;;;;;;;1012258;29;1014;-34
2022/01/01 02:03:10;;;;;;;;;;;;;;;;;;1012152;29;844;-34
2022/01/01 02:03:40;;;;;;;;;;;;;;;;;;1012014;29;880;-34
2022/01/01 02:04:11;;;;;;;;;;;;;;;;;;1012269;29;872;-34
2022/01/01 02:04:41;;;;;;;;;;;;;;;;;;1012215;29;966;-34
2022/01/01 02:05:12;;;;;;;;;;;;;;;;;;1012217;29;809;-34
2022/01/01 02:05:43;;;;;;;;;;;;;;;;;;1012099;29;947;-34
2022/01/01 02:06:14;;;;;;;;;;;;;;;;;;1012137;29;947;-33
2022/01/01 02:06:45;;;;;;;;;;;;;;;;;;1012056;29;1092;-34
2022/01/01 02:07:15;;;;;;;;;;;;;;;;;;1011991;29;1090;-34
2022/01/01 02:07:46;;;;;;;;;;;;;;;;;;1012079;29;981;-34
2022/01/01 02:08:17;;;;;;;;;;;;;;;;;;1012203;29;804;-34
2022/01/01 02:08:50;;;;;;;;;;;;;;;;;;1012119;29;940;-34
2022/01/01 02:09:20;;;;;;;;;;;;;;;;;;1012254;29;1049;-34
2022/01/01 02:09:51;;;;;;;;;;;;;;;;;;1012107;29;1280;-34
2022/01/01 02:10:21;;;;;;;;;;;;;;;;;;1012097;29;948;-34
2022/01/01 02:10:52;;;;;;;;;;;;;;;;;;1012086;29;1918;-34
2022/01/01 02:11:24;;;;;;;;;;;;;;;;;;1012051;29;780;-34
2022/01/01 02:11:54;;;;;;;;;;;;;;;;;;1012321;29;919;-34
2022/01/01 02:12:24;;;;;;;;;;;;;;;;;;1012059;29;824;-34
2022/01/01 02:12:56;;;;;;;;;;;;;;;;;;1012132;29;881;-34
2022/01/01 02:13:35;;;;;;;;;;;;;;;;;;1012128;29;943;-34
2022/01/01 02:14:14;;;;;;;;;;;;;;;;;;1011942;29;1116;-34
2022/01/01 02:17:30;;;;;;;;;;;;;;;;;;1012121;29;930;-34
2022/01/01 02:18:00;;;;;;;;;;;;;;;;;;1012227;29;900;-34
2022/01/01 02:18:31;;;;;;;;;;;;;;;;;;1011962;29;852;-32
2022/01/01 02:19:01;;;;;;;;;;;;;;;;;;1012395;29;942;-33
2022/01/01 02:19:42;;;;;;;;;;;;;;;;;;1011984;29;919;-34
2022/01/01 02:20:18;;;;;;;;;;;;;;;;;;1012292;29;966;-34
2022/01/01 02:20:49;;;;;;;;;;;;;;;;;;1011936;29;928;-34
2022/01/01 02:21:20;;;;;;;;;;;;;;;;;;1012232;29;975;-34
2022/01/01 02:21:52;;;;;;;;;;;;;;;;;;1012019;29;943;-34
2022/01/01 02:22:23;;;;;;;;;;;;;;;;;;1012182;29;919;-34
2022/01/01 02:22:58;;;;;;;;;;;;;;;;;;1012141;29;959;-33
2022/01/01 02:23:29;;;;;;;;;;;;;;;;;;1012089;29;809;-34
2022/01/01 02:24:00;;;;;;;;;;;;;;;;;;1012233;29;958;-34
2022/01/01 02:24:30;;;;;;;;;;;;;;;;;;1012096;29;840;-34
2022/01/01 02:25:01;;;;;;;;;;;;;;;;;;1012138;29;968;-34
2022/01/01 02:25:31;;;;;;;;;;;;;;;;;;1012008;29;808;-33
2022/01/01 02:26:03;;;;;;;;;;;;;;;;;;1012098;29;848;-34
2022/01/01 02:26:34;;;;;;;;;;;;;;;;;;1012086;29;927;-34
2022/01/01 02:27:04;;;;;;;;;;;;;;;;;;1012032;29;950;-34
2022/01/01 02:27:36;;;;;;;;;;;;;;;;;;1012099;29;923;-34
2022/01/01 02:28:07;;;;;;;;;;;;;;;;;;1012154;29;891;-34
2022/01/01 02:28:39;;;;;;;;;;;;;;;;;;1011996;29;1711;-34
2022/01/01 02:29:11;;;;;;;;;;;;;;;;;;1012088;29;939;-33
2022/01/01 02:29:41;;;;;;;;;;;;;;;;;;1012055;29;984;-34
2022/01/01 02:30:14;;;;;;;;;;;;;;;;;;1012069;29;986;-34
2022/01/01 02:30:44;;;;;;;;;;;;;;;;;;1012071;29;899;-34
2022/01/01 02:31:15;;;;;;;;;;;;;;;;;;1011980;29;1962;-34
2022/01/01 02:31:46;;;;;;;;;;;;;;;;;;1012120;29;928;-33
2022/01/01 02:32:16;;;;;;;;;;;;;;;;;;1012165;29;813;-34
2022/01/01 02:32:47;;;;;;;;;;;;;;;;;;1012089;29;880;-33
2022/01/01 02:33:17;;;;;;;;;;;;;;;;;;1012118;29;927;-34
2022/01/01 02:33:48;;;;;;;;;;;;;;;;;;1012007;29;773;-33
2022/01/01 02:34:19;;;;;;;;;;;;;;;;;;1012170;29;1614;-34
2022/01/01 02:34:50;;;;;;;;;;;;;;;;;;1012006;29;892;-34
2022/01/01 02:35:20;;;;;;;;;;;;;;;;;;1012032;29;923;-34
2022/01/01 02:35:50;;;;;;;;;;;;;;;;;;1011848;29;931;-34
2022/01/01 02:36:31;;;;;;;;;;;;;;;;;;1012082;29;952;-33
2022/01/01 02:37:01;;;;;;;;;;;;;;;;;;1012092;29;904;-34
2022/01/01 02:37:31;;;;;;;;;;;;;;;;;;1011958;29;810;-33
2022/01/01 02:38:02;;;;;;;;;;;;;;;;;;1011941;29;963;-34
2022/01/01 02:38:33;;;;;;;;;;;;;;;;;;1012196;29;1662;-33
2022/01/01 02:39:23;;;;;;;;;;;;;;;;;;1011949;29;880;-34
2022/01/01 02:39:54;;;;;;;;;;;;;;;;;;1011705;29;1684;-33
2022/01/01 02:40:24;;;;;;;;;;;;;;;;;;1012032;29;927;-34
2022/01/01 02:40:54;;;;;;;;;;;;;;;;;;1012088;29;899;-34
2022/01/01 02:41:26;;;;;;;;;;;;;;;;;;1012112;29;836;-33
2022/01/01 02:41:57;;;;;;;;;;;;;;;;;;1012109;29;907;-33
2022/01/01 02:42:27;;;;;;;;;;;;;;;;;;1012044;29;836;-33
2022/01/01 02:42:58;;;;;;;;;;;;;;;;;;1011608;29;899;-33
2022/01/01 02:43:28;;;;;;;;;;;;;;;;;;1011681;29;919;-35
2022/01/01 02:43:58;;;;;;;;;;;;;;;;;;1011652;29;1306;-34
2022/01/01 02:44:29;;;;;;;;;;;;;;;;;;1011639;29;863;-34
2022/01/01 02:45:02;;;;;;;;;;;;;;;;;;1012054;29;773;-34
2022/01/01 02:45:32;;;;;;;;;;;;;;;;;;1011949;29;951;-34
2022/01/01 02:46:02;;;;;;;;;;;;;;;;;;1011903;29;1022;-34
2022/01/01 02:46:34;;;;;;;;;;;;;;;;;;1012213;29;836;-34
2022/01/01 02:47:04;;;;;;;;;;;;;;;;;;1011881;29;837;-34
2022/01/01 02:47:35;;;;;;;;;;;;;;;;;;1012169;29;1721;-34
2022/01/01 02:48:05;;;;;;;;;;;;;;;;;;1011937;29;860;-34
2022/01/01 02:48:36;;;;;;;;;;;;;;;;;;1012142;29;891;-34
2022/01/01 02:49:06;;;;;;;;;;;;;;;;;;1011986;29;797;-34
2022/01/01 02:49:37;;;;;;;;;;;;;;;;;;1012111;29;903;-34
2022/01/01 02:50:08;;;;;;;;;;;;;;;;;;1011930;29;970;-34
2022/01/01 02:50:38;;;;;;;;;;;;;;;;;;1012213;29;943;-34
2022/01/01 02:51:08;;;;;;;;;;;;;;;;;;1011811;29;1997;-34
2022/01/01 02:51:39;;;;;;;;;;;;;;;;;;1012248;29;832;-34
2022/01/01 02:52:09;;;;;;;;;;;;;;;;;;1011821;29;888;-34
2022/01/01 02:52:39;;;;;;;;;;;;;;;;;;1012133;29;932;-34
2022/01/01 02:53:11;;;;;;;;;;;;;;;;;;1011833;29;919;-34
2022/01/01 02:53:41;;;;;;;;;;;;;;;;;;1012106;29;824;-34
2022/01/01 02:54:12;;;;;;;;;;;;;;;;;;1011909;29;1688;-34
2022/01/01 02:54:42;;;;;;;;;;;;;;;;;;1012037;29;888;-34
2022/01/01 02:55:13;;;;;;;;;;;;;;;;;;1011983;29;991;-34
2022/01/01 02:55:43;;;;;;;;;;;;;;;;;;1011956;29;899;-34
2022/01/01 02:56:14;;;;;;;;;;;;;;;;;;1011859;29;851;-34
2022/01/01 02:56:44;;;;;;;;;;;;;;;;;;1012078;29;626;-34
2022/01/01 02:57:14;;;;;;;;;;;;;;;;;;1011965;29;1380;-34
2022/01/01 02:57:45;;;;;;;;;;;;;;;;;;1011941;29;935;-34
2022/01/01 02:58:15;;;;;;;;;;;;;;;;;;1011999;29;840;-33
2022/01/01 02:58:45;;;;;;;;;;;;;;;;;;1011934;29;1079;-34
2022/01/01 02:59:16;;;;;;;;;;;;;;;;;;1011976;29;971;-34
2022/01/01 02:59:46;;;;;;;;;;;;;;;;;;1012020;29;868;-34
2022/01/01 03:00:17;;;;;;;;;;;;;;;;;;1011919;29;895;-34
2022/01/01 03:00:47;;;;;;;;;;;;;;;;;;1011933;29;820;-34
2022/01/01 03:01:18;;;;;;;;;;;;;;;;;;1012051;29;907;-34
2022/01/01 03:01:48;;;;;;;;;;;;;;;;;;1011937;29;824;-33
2022/01/01 03:02:18;;;;;;;;;;;;;;;;;;1012097;29;1034;-34
2022/01/01 03:02:49;;;;;;;;;;;;;;;;;;1011849;29;867;-34
2022/01/01 03:03:19;;;;;;;;;;;;;;;;;;1011972;29;942;-34
2022/01/01 03:03:49;;;;;;;;;;;;;;;;;;1011910;29;875;-34
2022/01/01 03:04:20;;;;;;;;;;;;;;;;;;1011991;29;853;-34
2022/01/01 03:04:50;;;;;;;;;;;;;;;;;;1011903;29;828;-34
2022/01/01 03:05:20;;;;;;;;;;;;;;;;;;1012011;29;986;-33
2022/01/01 03:05:51;;;;;;;;;;;;;;;;;;1011861;29;938;-34
2022/01/01 03:06:21;;;;;;;;;;;;;;;;;;1011942;29;871;-33
2022/01/01 03:06:56;;;;;;;;;;;;;;;;;;1007463;29;2463;-34
2022/01/01 03:07:26;;;;;;;;;;;;;;;;;;1007774;29;926;-34
2022/01/01 03:07:57;;;;;;;;;;;;;;;;;;1007761;29;871;-34
2022/01/01 03:08:28;;;;;;;;;;;;;;;;;;1008479;29;883;-34
2022/01/01 03:08:58;;;;;;;;;;;;;;;;;;1011998;29;848;-34
2022/01/01 03:09:35;;;;;;;;;;;;;;;;;;1011852;29;883;-34
2022/01/01 03:10:05;;;;;;;;;;;;;;;;;;1011920;29;789;-34
2022/01/01 03:10:35;;;;;;;;;;;;;;;;;;1011971;29;998;-34
2022/01/01 03:11:07;;;;;;;;;;;;;;;;;;1011649;29;2012;-34
2022/01/01 03:11:38;;;;;;;;;;;;;;;;;;1012047;29;938;-34
2022/01/01 03:12:09;;;;;;;;;;;;;;;;;;1011793;29;904;-34
2022/01/01 03:12:39;;;;;;;;;;;;;;;;;;1012078;29;797;-34
2022/01/01 03:13:10;;;;;;;;;;;;;;;;;;1011771;29;852;-34
2022/01/01 03:13:40;;;;;;;;;;;;;;;;;;1012032;29;907;-34
2022/01/01 03:14:17;;;;;;;;;;;;;;;;;;1011844;29;1171;-34
2022/01/01 03:14:47;;;;;;;;;;;;;;;;;;1011852;29;1123;-34
2022/01/01 03:15:17;;;;;;;;;;;;;;;;;;1011986;29;883;-33
2022/01/01 03:15:48;;;;;;;;;;;;;;;;;;1011812;29;785;-33
2022/01/01 03:16:18;;;;;;;;;;;;;;;;;;1011900;29;967;-33
2022/01/01 03:16:49;;;;;;;;;;;;;;;;;;1011961;29;922;-34
2022/01/01 03:17:19;;;;;;;;;;;;;;;;;;1011865;29;947;-33
2022/01/01 03:17:49;;;;;;;;;;;;;;;;;;1011942;29;876;-34
2022/01/01 03:18:20;;;;;;;;;;;;;;;;;;1011965;29;979;-34
2022/01/01 03:18:50;;;;;;;;;;;;;;;;;;1011852;29;915;-33
2022/01/01 03:19:21;;;;;;;;;;;;;;;;;;1011891;29;978;-34
2022/01/01 03:19:51;;;;;;;;;;;;;;;;;;1011765;29;1356;-33
2022/01/01 03:20:21;;;;;;;;;;;;;;;;;;1011939;29;1165;-34
2022/01/01 03:20:52;;;;;;;;;;;;;;;;;;1012060;29;1139;-34
2022/01/01 03:21:22;;;;;;;;;;;;;;;;;;1011722;29;832;-34
2022/01/01 03:21:52;;;;;;;;;;;;;;;;;;1011953;29;808;-34
2022/01/01 03:22:23;;;;;;;;;;;;;;;;;;1011898;29;895;-32
2022/01/01 03:22:53;;;;;;;;;;;;;;;;;;1011949;29;812;-34
2022/01/01 03:23:23;;;;;;;;;;;;;;;;;;1011856;29;872;-34
2022/01/01 03:23:53;;;;;;;;;;;;;;;;;;1011853;29;852;-34
2022/01/01 03:24:24;;;;;;;;;;;;;;;;;;1011870;29;876;-34
2022/01/01 03:24:54;;;;;;;;;;;;;;;;;;1011922;29;963;-34
2022/01/01 03:25:24;;;;;;;;;;;;;;;;;;1011771;29;988;-34
2022/01/01 03:25:55;;;;;;;;;;;;;;;;;;1011827;29;900;-34
2022/01/01 03:26:25;;;;;;;;;;;;;;;;;;1011811;29;789;-34
2022/01/01 03:26:56;;;;;;;;;;;;;;;;;;1011934;29;868;-34
2022/01/01 03:27:26;;;;;;;;;;;;;;;;;;1011959;29;800;-34
2022/01/01 03:27:56;;;;;;;;;;;;;;;;;;1011758;29;875;-34
2022/01/01 03:28:27;;;;;;;;;;;;;;;;;;1011849;29;907;-34
2022/01/01 03:28:57;;;;;;;;;;;;;;;;;;1011906;29;800;-34
2022/01/01 03:29:30;;;;;;;;;;;;;;;;;;1011854;29;994;-34
2022/01/01 03:30:00;;;;;;;;;;;;;;;;;;1011869;29;1030;-34
2022/01/01 03:30:31;;;;;;;;;;;;;;;;;;1009881;29;956;-34
2022/01/01 03:31:01;;;;;;;;;;;;;;;;;;1007928;29;1903;-34
2022/01/01 03:31:32;;;;;;;;;;;;;;;;;;1004624;29;952;-34
2022/01/01 03:32:02;;;;;;;;;;;;;;;;;;1010905;29;986;-34
2022/01/01 03:32:32;;;;;;;;;;;;;;;;;;1011949;29;942;-41
2022/01/01 03:33:03;;;;;;;;;;;;;;;;;;1003745;29;992;-34
2022/01/01 03:33:33;;;;;;;;;;;;;;;;;;1007668;29;877;-34
2022/01/01 03:34:04;;;;;;;;;;;;;;;;;;1007843;29;792;-34
2022/01/01 03:34:34;;;;;;;;;;;;;;;;;;1007773;29;713;-34
2022/01/01 03:35:05;;;;;;;;;;;;;;;;;;1007924;29;888;-34
2022/01/01 03:35:35;;;;;;;;;;;;;;;;;;1007862;29;1087;-34
2022/01/01 03:36:05;;;;;;;;;;;;;;;;;;1007761;29;821;-34
2022/01/01 03:36:36;;;;;;;;;;;;;;;;;;1008090;29;959;-34
2022/01/01 03:37:06;;;;;;;;;;;;;;;;;;1007791;29;908;-34
2022/01/01 03:37:37;;;;;;;;;;;;;;;;;;1008173;29;797;-34
2022/01/01 03:38:07;;;;;;;;;;;;;;;;;;1007838;29;889;-34
2022/01/01 03:38:37;;;;;;;;;;;;;;;;;;1008046;29;864;-34
2022/01/01 03:39:08;;;;;;;;;;;;;;;;;;1007940;29;990;-34
2022/01/01 03:39:38;;;;;;;;;;;;;;;;;;1008046;29;1032;-34
2022/01/01 03:40:09;;;;;;;;;;;;;;;;;;1007910;29;875;-34
2022/01/01 03:40:39;;;;;;;;;;;;;;;;;;1011490;29;1348;-34
2022/01/01 03:41:09;;;;;;;;;;;;;;;;;;1011685;29;935;-34